Time;durP1;ratioP1;P1;durP2;ratioP2;P2;SDS_P1;SDS_P2;PMS_P1;PMS_P2;Temp;Humidity;BMP_temperature;BMP_pressure;BME280_temperature;BME280_humidity;BME280_pressure;Samples;Min_cycle;Max_cycle;Signal;HPM_P1;HPM_P2
2021/01/30 00:00:43;;;;;;;7.80;5.10;;;4.60;99.90;;;-146.47;100.00;66290.13;5030676;28;20226;-84
2021/01/30 00:03:29;;;;;;;8.70;5.63;;;4.50;99.90;;;-146.47;100.00;66290.13;5033319;28;20212;-84
2021/01/30 00:06:14;;;;;;;6.53;5.30;;;4.50;99.90;;;-146.47;100.00;66290.13;5027145;28;20220;-83
2021/01/30 00:09:02;;;;;;;7.00;5.60;;;4.40;99.90;;;-146.47;100.00;66290.13;5036858;28;20218;-83
2021/01/30 00:11:48;;;;;;;8.13;5.50;;;4.40;99.90;;;-146.47;100.00;66290.13;5036194;28;20574;-83
2021/01/30 00:14:36;;;;;;;7.23;5.53;;;4.30;99.90;;;-146.47;100.00;66290.13;5030915;28;20280;-84
2021/01/30 00:17:22;;;;;;;6.03;5.43;;;4.30;99.90;;;-146.47;100.00;66290.13;5037803;28;20286;-84
2021/01/30 00:20:11;;;;;;;6.70;5.97;;;4.30;99.90;;;-146.47;100.00;66290.13;5037074;28;20234;-84
2021/01/30 00:22:58;;;;;;;6.93;5.60;;;4.20;99.90;;;-146.47;100.00;66290.13;5035741;28;20238;-84
2021/01/30 00:25:43;;;;;;;8.80;5.83;;;4.10;99.90;;;-146.47;100.00;66290.13;5036107;28;20212;-84
2021/01/30 00:28:29;;;;;;;7.87;6.30;;;4.10;99.90;;;-146.47;100.00;66290.13;5037858;28;20304;-84
2021/01/30 00:31:14;;;;;;;11.63;8.30;;;4.00;99.90;;;-146.47;100.00;66290.13;5034662;28;20195;-84
2021/01/30 00:33:59;;;;;;;10.33;7.60;;;4.00;99.90;;;-146.47;100.00;66290.13;5038628;28;20207;-84
2021/01/30 00:36:44;;;;;;;12.03;9.00;;;3.90;99.90;;;-146.47;100.00;66290.13;5026318;28;20523;-83
2021/01/30 00:39:30;;;;;;;14.67;8.77;;;3.90;99.90;;;-146.47;100.00;66290.13;5031802;28;20699;-83
2021/01/30 00:42:20;;;;;;;14.23;9.43;;;3.90;99.90;;;-146.47;100.00;66290.13;5036218;28;20219;-83
2021/01/30 00:45:14;;;;;;;12.17;9.10;;;3.80;99.90;;;-146.47;100.00;66290.13;5032690;28;20235;-84
2021/01/30 00:47:59;;;;;;;13.13;8.90;;;3.80;99.90;;;-146.47;100.00;66290.13;5032258;28;20251;-83
2021/01/30 00:50:45;;;;;;;14.13;8.87;;;3.70;99.90;;;-146.47;100.00;66290.13;5027409;28;20338;-82
2021/01/30 00:53:30;;;;;;;14.20;10.07;;;3.70;99.90;;;-146.47;100.00;66290.13;5033419;28;20562;-83
2021/01/30 00:56:16;;;;;;;13.30;8.87;;;3.70;99.90;;;-146.47;100.00;66290.13;5033988;28;20695;-83
2021/01/30 00:59:02;;;;;;;12.53;8.80;;;3.70;99.90;;;-146.47;100.00;66290.13;5034217;28;20638;-82
2021/01/30 01:01:49;;;;;;;12.87;9.17;;;3.60;99.90;;;-146.47;100.00;66290.13;5033838;28;20589;-83
2021/01/30 01:04:34;;;;;;;14.27;10.37;;;3.60;99.90;;;-146.47;100.00;66290.13;5033054;28;20286;-83
2021/01/30 01:07:19;;;;;;;13.17;9.53;;;3.60;99.90;;;-146.47;100.00;66290.13;5033722;28;20227;-83
2021/01/30 01:10:06;;;;;;;12.87;9.13;;;3.60;99.90;;;-146.47;100.00;66290.13;5035984;28;20270;-83
2021/01/30 01:12:52;;;;;;;15.00;10.57;;;3.60;99.90;;;-146.47;100.00;66290.13;5034930;28;20198;-83
2021/01/30 01:15:38;;;;;;;14.47;10.30;;;3.50;99.90;;;-146.47;100.00;66290.13;5034811;28;20759;-84
2021/01/30 01:18:24;;;;;;;15.93;10.93;;;3.50;99.90;;;-146.47;100.00;66290.13;5034543;28;20223;-84
2021/01/30 01:21:09;;;;;;;14.83;10.37;;;3.50;99.90;;;-146.47;100.00;66290.13;5033570;28;20279;-84
2021/01/30 01:23:54;;;;;;;14.63;11.13;;;3.50;99.90;;;-146.47;100.00;66290.13;5031838;28;20211;-84
2021/01/30 01:26:43;;;;;;;17.50;11.77;;;3.50;99.90;;;-146.47;100.00;66290.13;5028524;28;20306;-84
2021/01/30 01:29:28;;;;;;;19.73;12.90;;;3.50;99.90;;;-146.47;100.00;66290.13;5036964;28;20224;-84
2021/01/30 01:32:15;;;;;;;17.93;12.73;;;3.50;99.90;;;-146.47;100.00;66290.13;5031966;28;20670;-83
2021/01/30 01:35:00;;;;;;;18.10;12.63;;;3.50;99.90;;;-146.47;100.00;66290.13;5036861;28;20203;-82
2021/01/30 01:37:46;;;;;;;17.77;12.60;;;3.40;99.90;;;-146.47;100.00;66290.13;5036252;28;20226;-84
2021/01/30 01:40:34;;;;;;;19.73;12.87;;;3.40;99.90;;;-146.47;100.00;66290.13;5036039;28;20203;-83
2021/01/30 01:43:23;;;;;;;17.60;12.73;;;3.40;99.90;;;-146.47;100.00;66290.13;5034536;28;20259;-83
2021/01/30 01:46:26;;;;;;;19.43;13.10;;;3.40;99.90;;;-146.47;100.00;66290.13;5035706;28;20748;-83
2021/01/30 01:49:17;;;;;;;21.03;14.47;;;3.40;99.90;;;-146.47;100.00;66290.13;5030947;28;20639;-85
2021/01/30 01:52:15;;;;;;;22.33;15.00;;;3.40;99.90;;;-146.47;100.00;66290.13;5034122;28;20247;-83
2021/01/30 01:55:06;;;;;;;18.83;13.00;;;3.40;99.90;;;-146.47;100.00;66290.13;5034573;28;20207;-85
2021/01/30 01:57:54;;;;;;;22.03;14.93;;;3.20;99.90;;;-146.47;100.00;66290.13;5030139;28;20720;-83
2021/01/30 02:00:40;;;;;;;23.03;16.07;;;3.30;99.90;;;-146.47;100.00;66290.13;5036967;28;20214;-84
2021/01/30 02:03:27;;;;;;;21.40;15.77;;;3.30;99.90;;;-146.47;100.00;66290.13;5033770;28;20215;-81
2021/01/30 02:06:13;;;;;;;22.80;16.67;;;3.30;99.90;;;-146.47;100.00;66290.13;5031404;28;20212;-85
2021/01/30 02:09:00;;;;;;;24.87;15.97;;;3.30;99.90;;;-146.47;100.00;66290.13;5028989;28;20227;-84
2021/01/30 02:11:59;;;;;;;20.87;15.47;;;3.20;99.90;;;-146.47;100.00;66290.13;5029429;28;20243;-83
2021/01/30 02:14:49;;;;;;;20.67;13.67;;;3.20;99.90;;;-146.47;100.00;66290.13;5025672;28;20196;-84
2021/01/30 02:17:45;;;;;;;18.80;13.40;;;3.20;99.90;;;-146.47;100.00;66290.13;5034756;28;20710;-83
2021/01/30 02:21:40;;;;;;;16.87;11.93;;;3.20;99.90;;;-146.47;100.00;66290.13;5035520;28;20270;-83
2021/01/30 02:25:12;;;;;;;14.80;10.73;;;3.10;99.90;;;-146.47;100.00;66290.13;5010072;28;20746;-84
2021/01/30 02:28:22;;;;;;;14.10;10.67;;;3.10;99.90;;;-146.47;100.00;66290.13;5026510;28;20656;-83
2021/01/30 02:31:46;;;;;;;14.23;9.77;;;3.00;99.90;;;-146.47;100.00;66290.13;5028337;28;20199;-84
2021/01/30 02:35:03;;;;;;;16.40;10.07;;;3.00;99.90;;;-146.47;100.00;66290.13;5034020;28;20284;-82
2021/01/30 02:37:59;;;;;;;11.80;8.83;;;2.90;99.90;;;-146.47;100.00;66290.13;5035055;28;20265;-81
2021/01/30 02:40:51;;;;;;;13.13;8.93;;;2.90;99.90;;;-146.47;100.00;66290.13;5055550;28;20195;-81
2021/01/30 02:43:43;;;;;;;12.40;9.50;;;2.80;99.90;;;-146.47;100.00;66290.13;5042570;28;20615;-83
2021/01/30 02:46:37;;;;;;;13.30;9.57;;;2.80;99.90;;;-146.47;100.00;66290.13;5035635;28;20335;-84
2021/01/30 02:49:31;;;;;;;12.83;8.73;;;2.80;99.90;;;-146.47;100.00;66290.13;5027693;28;20232;-83
2021/01/30 02:52:22;;;;;;;14.17;10.47;;;2.80;99.90;;;-146.47;100.00;66290.13;5035585;28;20204;-83
2021/01/30 02:55:15;;;;;;;12.23;8.90;;;2.70;99.90;;;-146.47;100.00;66290.13;5025065;28;20211;-84
2021/01/30 02:58:01;;;;;;;13.23;9.53;;;2.70;99.90;;;-146.47;100.00;66290.13;5025360;28;20274;-81
2021/01/30 03:00:48;;;;;;;14.90;10.97;;;2.70;99.90;;;-146.47;100.00;66290.13;5036500;28;20206;-83
2021/01/30 03:03:34;;;;;;;13.87;9.40;;;2.70;99.90;;;-146.47;100.00;66290.13;5040136;28;20195;-85
2021/01/30 03:06:32;;;;;;;14.07;9.67;;;2.60;99.90;;;-146.47;100.00;66290.13;5041697;28;20238;-86
2021/01/30 03:09:27;;;;;;;14.20;10.30;;;2.60;99.90;;;-146.47;100.00;66290.13;5036282;28;20220;-84
2021/01/30 03:12:24;;;;;;;14.73;10.37;;;2.60;99.90;;;-146.47;100.00;66290.13;5036618;28;20206;-85
2021/01/30 03:15:18;;;;;;;14.30;10.00;;;2.50;99.90;;;-146.47;100.00;66290.13;5036933;28;20565;-84
2021/01/30 03:18:07;;;;;;;14.43;10.00;;;2.50;99.90;;;-146.47;100.00;66290.13;5030789;28;20259;-84
2021/01/30 03:20:53;;;;;;;15.33;9.47;;;2.50;99.90;;;-146.47;100.00;66290.13;5038802;28;20239;-85
2021/01/30 03:23:38;;;;;;;15.03;10.27;;;2.50;99.90;;;-146.47;100.00;66290.13;5030526;28;20206;-84
2021/01/30 03:26:27;;;;;;;13.30;10.03;;;2.50;99.90;;;-146.47;100.00;66290.13;5035382;28;20235;-84
2021/01/30 03:29:17;;;;;;;15.43;9.90;;;2.50;99.90;;;-146.47;100.00;66290.13;5038667;28;20266;-84
2021/01/30 03:32:02;;;;;;;13.07;9.33;;;2.50;99.90;;;-146.47;100.00;66290.13;5036573;28;20211;-84
2021/01/30 03:34:48;;;;;;;14.67;10.20;;;2.50;99.90;;;-146.47;100.00;66290.13;5039094;28;20211;-84
2021/01/30 03:37:33;;;;;;;14.90;10.83;;;2.50;99.90;;;-146.47;100.00;66290.13;5026695;28;20300;-83
2021/01/30 03:40:20;;;;;;;13.77;10.00;;;2.40;99.90;;;-146.47;100.00;66290.13;5026200;28;20215;-84
2021/01/30 03:43:06;;;;;;;15.37;10.00;;;2.40;99.90;;;-146.47;100.00;66290.13;5038736;28;20211;-84
2021/01/30 03:45:54;;;;;;;15.40;10.20;;;2.40;99.90;;;-146.47;100.00;66290.13;5029944;28;20231;-83
2021/01/30 03:48:39;;;;;;;12.70;9.10;;;2.40;99.90;;;-146.47;100.00;66290.13;5038634;28;20285;-83
2021/01/30 03:51:24;;;;;;;12.93;9.17;;;2.40;99.90;;;-146.47;100.00;66290.13;5036123;28;20220;-85
2021/01/30 03:54:10;;;;;;;11.83;8.87;;;2.40;99.90;;;-146.47;100.00;66290.13;5038992;28;20642;-84
2021/01/30 03:56:55;;;;;;;13.27;9.07;;;2.40;99.90;;;-146.47;100.00;66290.13;5038507;28;20208;-84
2021/01/30 03:59:40;;;;;;;14.57;9.93;;;2.40;99.90;;;-146.47;100.00;66290.13;5037799;28;20250;-84
2021/01/30 04:02:26;;;;;;;12.53;9.93;;;2.40;99.90;;;-146.47;100.00;66290.13;5038110;28;20246;-83
2021/01/30 04:05:13;;;;;;;11.70;8.77;;;2.40;99.90;;;-146.47;100.00;66290.13;5030182;28;20607;-84
2021/01/30 04:08:00;;;;;;;12.47;8.93;;;2.30;99.90;;;-146.47;100.00;66290.13;5037296;28;20239;-84
2021/01/30 04:10:46;;;;;;;12.37;9.00;;;2.30;99.90;;;-146.47;100.00;66290.13;5036484;28;20254;-84
2021/01/30 04:13:31;;;;;;;11.00;8.20;;;2.30;99.90;;;-146.47;100.00;66290.13;5037954;28;20250;-84
2021/01/30 04:16:16;;;;;;;12.90;9.60;;;2.30;99.90;;;-146.47;100.00;66290.13;5036517;28;20214;-83
2021/01/30 04:19:03;;;;;;;12.27;8.53;;;2.30;99.90;;;-146.47;100.00;66290.13;5036097;28;20797;-81
2021/01/30 04:21:48;;;;;;;13.37;9.57;;;2.30;99.90;;;-146.47;100.00;66290.13;5035315;28;20702;-84
2021/01/30 04:24:34;;;;;;;13.23;10.00;;;2.20;99.90;;;-146.47;100.00;66290.13;5037361;28;20258;-84
2021/01/30 04:27:19;;;;;;;14.13;9.73;;;2.40;99.90;;;-146.47;100.00;66290.13;5023987;28;20453;-84
2021/01/30 04:30:07;;;;;;;12.77;9.63;;;2.20;99.90;;;-146.47;100.00;66290.13;5035480;28;20565;-84
2021/01/30 04:32:53;;;;;;;11.80;9.13;;;2.20;99.90;;;-146.47;100.00;66290.13;5036666;28;20259;-84
2021/01/30 04:35:39;;;;;;;12.37;8.53;;;2.20;99.90;;;-146.47;100.00;66290.13;5035969;28;20627;-84
2021/01/30 04:38:24;;;;;;;12.90;9.00;;;2.20;99.90;;;-146.47;100.00;66290.13;5035765;28;20714;-84
2021/01/30 04:41:25;;;;;;;12.30;9.40;;;2.20;99.90;;;-146.47;100.00;66290.13;5036988;28;20242;-84
2021/01/30 04:44:20;;;;;;;12.57;9.17;;;2.20;99.90;;;-146.47;100.00;66290.13;5033436;28;20327;-83
2021/01/30 04:47:22;;;;;;;11.20;8.80;;;2.20;99.90;;;-146.47;100.00;66290.13;5035688;28;20232;-84
2021/01/30 04:50:16;;;;;;;11.67;8.77;;;2.20;99.90;;;-146.47;100.00;66290.13;5027457;28;20199;-83
2021/01/30 04:53:15;;;;;;;11.50;9.47;;;2.10;99.90;;;-146.47;100.00;66290.13;5028702;28;20254;-84
2021/01/30 04:56:13;;;;;;;11.80;8.73;;;2.10;99.90;;;-146.47;100.00;66290.13;5035136;28;20243;-84
2021/01/30 04:59:11;;;;;;;11.63;8.70;;;2.10;99.90;;;-146.47;100.00;66290.13;5034117;28;20235;-84
2021/01/30 05:02:05;;;;;;;10.33;7.70;;;2.20;99.90;;;-146.47;100.00;66290.13;5035429;28;20215;-84
2021/01/30 05:04:56;;;;;;;11.33;8.07;;;2.10;99.90;;;-146.47;100.00;66290.13;5036797;28;20623;-84
2021/01/30 05:07:46;;;;;;;12.83;8.37;;;2.10;99.90;;;-146.47;100.00;66290.13;5035872;28;20670;-84
2021/01/30 05:10:41;;;;;;;11.83;8.33;;;2.00;99.90;;;-146.47;100.00;66290.13;5032131;28;20333;-84
2021/01/30 05:13:34;;;;;;;9.70;7.20;;;2.00;99.90;;;-146.47;100.00;66290.13;5036610;28;20291;-85
2021/01/30 05:16:28;;;;;;;10.30;8.13;;;2.00;99.90;;;-146.47;100.00;66290.13;5036460;28;20222;-83
2021/01/30 05:19:13;;;;;;;10.60;8.60;;;2.00;99.90;;;-146.47;100.00;66290.13;5039533;28;20222;-83
2021/01/30 05:22:05;;;;;;;9.27;6.50;;;2.00;99.90;;;-146.47;100.00;66290.13;5036456;28;20287;-84
2021/01/30 05:24:50;;;;;;;9.07;7.33;;;2.00;99.90;;;-146.47;100.00;66290.13;5039193;28;20235;-83
2021/01/30 05:28:14;;;;;;;10.93;8.20;;;1.90;99.90;;;-146.47;100.00;66290.13;5051652;28;20253;-82
2021/01/30 05:31:18;;;;;;;10.50;8.07;;;1.90;99.90;;;-146.47;100.00;66290.13;5044603;28;20263;-84
2021/01/30 05:34:23;;;;;;;12.17;8.37;;;1.90;99.90;;;-146.47;100.00;66290.13;5039272;28;20207;-83
2021/01/30 05:37:15;;;;;;;11.80;9.03;;;1.80;99.90;;;-146.47;100.00;66290.13;5041673;28;20202;-84
2021/01/30 05:40:19;;;;;;;12.60;8.97;;;1.70;99.90;;;-146.47;100.00;66290.13;5039760;28;20199;-84
2021/01/30 05:43:19;;;;;;;11.83;8.23;;;1.70;99.90;;;-146.47;100.00;66290.13;5037916;28;20576;-85
2021/01/30 05:46:17;;;;;;;11.17;8.60;;;1.60;99.90;;;-146.47;100.00;66290.13;5040172;28;20299;-81
2021/01/30 05:49:11;;;;;;;10.23;7.87;;;1.60;99.90;;;-146.47;100.00;66290.13;5049722;28;20239;-82
2021/01/30 05:52:08;;;;;;;10.77;8.23;;;1.50;99.90;;;-146.47;100.00;66290.13;5047700;28;20260;-85
2021/01/30 05:54:53;;;;;;;10.50;7.80;;;1.40;99.90;;;-146.47;100.00;66290.13;5037837;28;20207;-83
2021/01/30 05:57:38;;;;;;;10.03;8.30;;;1.40;99.90;;;-146.47;100.00;66290.13;5040248;28;20250;-85
2021/01/30 06:00:26;;;;;;;10.93;7.93;;;1.40;99.90;;;-146.47;100.00;66290.13;5035182;28;20206;-83
2021/01/30 06:03:14;;;;;;;10.53;8.63;;;1.40;99.90;;;-146.47;100.00;66290.13;5036722;28;20222;-84
2021/01/30 06:06:10;;;;;;;11.73;8.83;;;1.40;99.90;;;-146.47;100.00;66290.13;5036234;28;20200;-85
2021/01/30 06:09:00;;;;;;;14.13;8.50;;;1.40;99.90;;;-146.47;100.00;66290.13;5040103;28;20226;-84
2021/01/30 06:11:49;;;;;;;10.90;7.37;;;1.30;99.90;;;-146.47;100.00;66290.13;5027786;28;20743;-84
2021/01/30 06:14:38;;;;;;;15.13;8.07;;;1.30;99.90;;;-146.47;100.00;66290.13;5035596;28;20235;-84
2021/01/30 06:17:33;;;;;;;11.70;8.63;;;1.30;99.90;;;-146.47;100.00;66290.13;5040076;28;20574;-84
2021/01/30 06:20:24;;;;;;;11.23;7.73;;;1.30;99.90;;;-146.47;100.00;66290.13;5031165;28;20316;-84
2021/01/30 06:23:13;;;;;;;12.03;7.73;;;1.40;99.90;;;-146.47;100.00;66290.13;5037425;28;20211;-84
2021/01/30 06:26:20;;;;;;;10.03;6.60;;;1.30;99.90;;;-146.47;100.00;66290.13;5034561;28;20261;-84
2021/01/30 06:29:26;;;;;;;10.53;7.50;;;1.30;99.90;;;-146.47;100.00;66290.13;5035167;28;20727;-85
2021/01/30 06:32:25;;;;;;;11.53;8.07;;;1.30;99.90;;;-146.47;100.00;66290.13;5034861;28;20211;-85
2021/01/30 06:35:24;;;;;;;11.93;8.10;;;1.30;99.90;;;-146.47;100.00;66290.13;5032322;28;20223;-84
2021/01/30 06:38:18;;;;;;;8.70;6.50;;;1.30;99.90;;;-146.47;100.00;66290.13;5035235;28;20270;-84
2021/01/30 06:41:05;;;;;;;10.33;6.33;;;1.30;99.90;;;-146.47;100.00;66290.13;5036493;28;20257;-85
2021/01/30 06:44:04;;;;;;;7.60;5.73;;;1.30;99.90;;;-146.47;100.00;66290.13;5021545;28;20300;-85
2021/01/30 06:47:16;;;;;;;8.00;5.53;;;1.40;99.90;;;-146.47;100.00;66290.13;5030397;28;20219;-83
2021/01/30 06:50:19;;;;;;;6.77;4.93;;;1.50;99.90;;;-146.47;100.00;66290.13;5052896;28;20219;-81
2021/01/30 06:53:23;;;;;;;6.60;4.63;;;1.40;99.90;;;-146.47;100.00;66290.13;5053596;28;20191;-82
2021/01/30 06:56:14;;;;;;;7.33;5.20;;;1.40;99.90;;;-146.47;100.00;66290.13;5053409;28;20199;-82
2021/01/30 06:59:05;;;;;;;7.07;5.10;;;1.40;99.90;;;-146.47;100.00;66290.13;5041474;28;20275;-84
2021/01/30 07:01:50;;;;;;;5.70;4.33;;;1.40;99.90;;;-146.47;100.00;66290.13;5031000;28;20250;-84
2021/01/30 07:05:05;;;;;;;7.43;4.80;;;1.40;99.90;;;-146.47;100.00;66290.13;5030412;28;20207;-81
2021/01/30 07:08:49;;;;;;;6.20;4.57;;;1.40;99.90;;;-146.47;100.00;66290.13;5027669;28;20314;-82
2021/01/30 07:12:05;;;;;;;5.90;4.20;;;1.40;99.90;;;-146.47;100.00;66290.13;5022633;28;20746;-82
2021/01/30 07:15:22;;;;;;;7.17;4.57;;;1.40;99.90;;;-146.47;100.00;66290.13;5025999;28;20312;-83
2021/01/30 07:18:28;;;;;;;5.87;4.43;;;1.40;99.90;;;-146.47;100.00;66290.13;5023909;28;20305;-83
2021/01/30 07:21:56;;;;;;;8.50;5.03;;;1.40;99.90;;;-146.47;100.00;66290.13;5023814;28;20728;-84
2021/01/30 07:24:51;;;;;;;6.67;4.90;;;1.40;99.90;;;-146.47;100.00;66290.13;5026768;28;20251;-84
2021/01/30 07:27:46;;;;;;;6.83;4.77;;;1.40;99.90;;;-146.47;100.00;66290.13;5036898;28;20290;-81
2021/01/30 07:30:45;;;;;;;8.13;5.90;;;1.40;99.90;;;-146.47;100.00;66290.13;5037111;28;20621;-81
2021/01/30 07:33:41;;;;;;;7.43;5.50;;;1.40;99.90;;;-146.47;100.00;66290.13;5026865;28;20204;-82
2021/01/30 07:36:35;;;;;;;7.47;5.87;;;1.40;99.90;;;-146.47;100.00;66290.13;5035002;28;20203;-82
2021/01/30 07:39:35;;;;;;;10.17;5.60;;;1.40;99.90;;;-146.47;100.00;66290.13;5027014;28;20726;-82
2021/01/30 07:42:33;;;;;;;7.23;5.23;;;1.50;99.90;;;-146.47;100.00;66290.13;5030062;28;20279;-82
2021/01/30 07:45:22;;;;;;;6.93;5.33;;;1.50;99.90;;;-146.47;100.00;66290.13;5027552;28;20238;-82
2021/01/30 07:48:17;;;;;;;7.07;5.63;;;1.50;99.90;;;-146.47;100.00;66290.13;5028037;28;20247;-85
2021/01/30 07:51:10;;;;;;;5.67;4.73;;;1.50;99.90;;;-146.47;100.00;66290.13;5031099;28;20203;-85
2021/01/30 07:53:56;;;;;;;8.53;5.90;;;1.60;99.90;;;-146.47;100.00;66290.13;5037321;28;20235;-82
2021/01/30 07:57:06;;;;;;;9.63;6.47;;;1.60;99.90;;;-146.47;100.00;66290.13;5033085;28;20271;-82
2021/01/30 07:59:57;;;;;;;8.67;5.70;;;1.60;99.90;;;-146.47;100.00;66290.13;5027691;28;20223;-82
2021/01/30 08:03:13;;;;;;;8.43;5.47;;;1.60;99.90;;;-146.47;100.00;66290.13;5025528;28;20276;-83
2021/01/30 08:06:25;;;;;;;8.97;5.80;;;1.60;99.90;;;-146.47;100.00;66290.13;5035542;28;20254;-83
2021/01/30 08:09:25;;;;;;;9.60;5.90;;;1.60;99.90;;;-146.47;100.00;66290.13;5034355;28;20314;-83
2021/01/30 08:12:25;;;;;;;8.87;6.43;;;1.60;99.90;;;-146.47;100.00;66290.13;5033765;28;20247;-83
2021/01/30 08:15:22;;;;;;;7.40;5.20;;;1.70;99.90;;;-146.47;100.00;66290.13;5024717;28;20207;-82
2021/01/30 08:18:24;;;;;;;8.57;6.03;;;1.70;99.90;;;-146.47;100.00;66290.13;5025832;28;20223;-83
2021/01/30 08:21:28;;;;;;;9.03;6.43;;;1.70;99.90;;;-146.47;100.00;66290.13;5025528;28;20190;-82
2021/01/30 08:24:23;;;;;;;8.90;6.40;;;1.70;99.90;;;-146.47;100.00;66290.13;5027447;28;20207;-84
2021/01/30 08:27:16;;;;;;;8.73;6.10;;;1.80;99.90;;;-146.47;100.00;66290.13;5033208;28;20347;-82
2021/01/30 08:30:13;;;;;;;9.50;7.10;;;1.80;99.90;;;-146.47;100.00;66290.13;5022014;28;20201;-82
2021/01/30 08:33:03;;;;;;;9.77;7.10;;;1.80;99.90;;;-146.47;100.00;66290.13;5030462;28;20211;-82
2021/01/30 08:35:56;;;;;;;10.97;7.07;;;1.80;99.90;;;-146.47;100.00;66290.13;5030465;28;20940;-82
2021/01/30 08:38:41;;;;;;;9.13;6.53;;;1.80;99.90;;;-146.47;100.00;66290.13;5030053;28;20227;-82
2021/01/30 08:41:45;;;;;;;9.27;6.70;;;1.80;99.90;;;-146.47;100.00;66290.13;5028593;28;20235;-81
2021/01/30 08:44:53;;;;;;;10.40;6.97;;;1.80;99.90;;;-146.47;100.00;66290.13;5029647;28;20199;-82
2021/01/30 08:52:23;;;;;;;8.80;6.40;;;1.90;99.90;;;-146.47;100.00;66290.13;5003041;28;20218;-81
2021/01/30 08:55:33;;;;;;;10.07;6.37;;;1.90;99.90;;;-146.47;100.00;66290.13;5027436;28;20206;-82
2021/01/30 08:58:47;;;;;;;9.50;6.33;;;1.90;99.90;;;-146.47;100.00;66290.13;5029172;28;20377;-81
2021/01/30 09:01:48;;;;;;;9.63;6.47;;;1.90;99.90;;;-146.47;100.00;66290.13;5028074;28;20200;-82
2021/01/30 09:04:58;;;;;;;9.70;6.20;;;2.00;99.90;;;-146.47;100.00;66290.13;5025538;28;20562;-81
2021/01/30 09:07:49;;;;;;;9.93;6.70;;;2.00;99.90;;;-146.47;100.00;66290.13;5029140;28;21107;-82
2021/01/30 09:10:37;;;;;;;10.27;7.03;;;2.10;99.90;;;-146.47;100.00;66290.13;5017436;28;20227;-81
2021/01/30 09:13:22;;;;;;;9.50;6.57;;;2.10;99.90;;;-146.47;100.00;66290.13;5018508;28;20700;-83
2021/01/30 09:16:10;;;;;;;9.33;6.53;;;2.20;99.90;;;-146.47;100.00;66290.13;5027998;28;20239;-82
2021/01/30 09:19:05;;;;;;;10.93;7.37;;;2.20;99.90;;;-146.47;100.00;66290.13;5027929;28;20239;-82
2021/01/30 09:22:05;;;;;;;9.17;6.67;;;2.30;99.90;;;-146.47;100.00;66290.13;5032052;28;20207;-82
2021/01/30 09:25:14;;;;;;;9.73;6.93;;;2.40;99.90;;;-146.47;100.00;66290.13;5032945;28;20273;-83
2021/01/30 09:28:03;;;;;;;10.27;6.43;;;2.50;99.90;;;-146.47;100.00;66290.13;5031042;28;20290;-82
2021/01/30 09:30:56;;;;;;;9.60;7.63;;;2.50;99.90;;;-146.47;100.00;66290.13;5027450;28;20702;-82
2021/01/30 09:33:48;;;;;;;10.20;7.17;;;2.60;99.90;;;-146.47;100.00;66290.13;5027655;28;20203;-82
2021/01/30 09:36:39;;;;;;;9.97;7.37;;;2.60;99.90;;;-146.47;100.00;66290.13;5026454;28;20216;-83
2021/01/30 09:39:29;;;;;;;9.93;6.60;;;2.70;99.90;;;-146.47;100.00;66290.13;5025625;28;20230;-82
2021/01/30 09:42:19;;;;;;;10.07;7.20;;;2.80;99.90;;;-146.47;100.00;66290.13;5022795;28;20207;-84
2021/01/30 09:45:11;;;;;;;13.00;8.03;;;2.70;99.90;;;-146.47;100.00;66290.13;5029688;28;20282;-84
2021/01/30 09:47:59;;;;;;;10.67;7.97;;;2.80;99.90;;;-146.47;100.00;66290.13;5026610;28;20297;-84
2021/01/30 09:50:50;;;;;;;10.30;7.43;;;2.80;99.90;;;-146.47;100.00;66290.13;5031236;28;20552;-83
2021/01/30 09:53:45;;;;;;;10.47;7.83;;;2.80;99.90;;;-146.47;100.00;66290.13;5025936;28;20676;-84
2021/01/30 09:56:36;;;;;;;9.77;7.20;;;2.90;99.90;;;-146.47;100.00;66290.13;5027925;28;20241;-83
2021/01/30 09:59:28;;;;;;;10.70;7.53;;;2.90;99.90;;;-146.47;100.00;66290.13;5031286;28;20244;-84
2021/01/30 10:02:19;;;;;;;12.00;7.93;;;3.00;99.90;;;-146.47;100.00;66290.13;5031266;28;20203;-83
2021/01/30 10:05:08;;;;;;;10.80;7.03;;;3.10;99.90;;;-146.47;100.00;66290.13;5026222;28;20207;-85
2021/01/30 10:07:54;;;;;;;9.90;7.63;;;3.10;99.90;;;-146.47;100.00;66290.13;5033734;28;20232;-83
2021/01/30 10:10:39;;;;;;;9.37;7.43;;;3.20;99.90;;;-146.47;100.00;66290.13;5028883;28;20207;-82
2021/01/30 10:13:25;;;;;;;11.63;8.23;;;3.20;99.90;;;-146.47;100.00;66290.13;5030630;28;20696;-82
2021/01/30 10:16:18;;;;;;;11.27;8.10;;;3.30;99.90;;;-146.47;100.00;66290.13;5029394;28;20234;-83
2021/01/30 10:19:20;;;;;;;10.43;7.43;;;3.30;99.90;;;-146.47;100.00;66290.13;5022113;28;20278;-82
2021/01/30 10:22:18;;;;;;;12.33;7.77;;;3.40;99.90;;;-146.47;100.00;66290.13;5026611;28;20623;-82
2021/01/30 10:25:09;;;;;;;10.97;8.13;;;3.40;99.90;;;-146.47;100.00;66290.13;5027400;28;20286;-84
2021/01/30 10:28:07;;;;;;;10.97;8.10;;;3.50;99.90;;;-146.47;100.00;66290.13;5027487;28;20243;-84
2021/01/30 10:30:53;;;;;;;10.17;7.53;;;3.60;99.90;;;-146.47;100.00;66290.13;5028438;28;21534;-83
2021/01/30 10:33:47;;;;;;;9.63;7.43;;;3.60;99.90;;;-146.47;100.00;66290.13;5028376;28;20247;-84
2021/01/30 10:36:41;;;;;;;10.70;7.70;;;3.70;99.90;;;-146.47;100.00;66290.13;5032714;28;20203;-83
2021/01/30 10:39:31;;;;;;;10.50;8.13;;;3.70;99.90;;;-146.47;100.00;66290.13;5027019;28;20262;-83
2021/01/30 10:42:24;;;;;;;8.90;7.13;;;3.80;99.90;;;-146.47;100.00;66290.13;5030300;28;20215;-88
2021/01/30 10:45:22;;;;;;;7.57;6.20;;;3.80;99.90;;;-146.47;100.00;66290.13;5023703;28;20250;-87
2021/01/30 10:48:10;;;;;;;9.97;7.00;;;3.90;99.90;;;-146.47;100.00;66290.13;5029271;28;20767;-82
2021/01/30 10:51:05;;;;;;;10.17;7.90;;;3.90;99.90;;;-146.47;100.00;66290.13;5027915;28;20206;-82
2021/01/30 10:54:17;;;;;;;10.23;7.20;;;4.00;99.90;;;-146.47;100.00;66290.13;5029211;28;20671;-83
2021/01/30 10:57:27;;;;;;;8.40;6.47;;;4.10;99.90;;;-146.47;100.00;66290.13;5029210;28;20220;-82
2021/01/30 11:00:27;;;;;;;9.10;7.13;;;4.10;99.90;;;-146.47;100.00;66290.13;5028970;28;20208;-82
2021/01/30 11:03:57;;;;;;;9.57;7.63;;;4.20;99.90;;;-146.47;100.00;66290.13;5028298;28;20208;-83
2021/01/30 11:06:47;;;;;;;7.97;6.10;;;4.20;99.90;;;-146.47;100.00;66290.13;5034041;28;20210;-83
2021/01/30 11:09:36;;;;;;;8.47;6.73;;;4.20;99.90;;;-146.47;100.00;66290.13;5033523;28;20727;-82
2021/01/30 11:12:25;;;;;;;8.00;6.40;;;4.20;99.90;;;-146.47;100.00;66290.13;5033148;28;20211;-82
2021/01/30 11:15:18;;;;;;;8.67;6.13;;;4.30;99.90;;;-146.47;100.00;66290.13;5036542;28;20284;-82
2021/01/30 11:18:37;;;;;;;9.17;6.30;;;4.30;99.90;;;-146.47;100.00;66290.13;5038542;28;20231;-83
2021/01/30 11:21:36;;;;;;;8.37;5.73;;;4.50;99.90;;;-146.47;100.00;66290.13;5035092;28;20199;-84
2021/01/30 11:24:33;;;;;;;9.57;6.60;;;4.30;99.90;;;-146.47;100.00;66290.13;5030935;28;20335;-83
2021/01/30 11:27:38;;;;;;;9.00;6.43;;;4.30;99.90;;;-146.47;100.00;66290.13;5031618;28;20247;-83
2021/01/30 11:30:28;;;;;;;8.87;6.83;;;4.30;99.90;;;-146.47;100.00;66290.13;5032364;28;20250;-82
2021/01/30 11:33:17;;;;;;;8.07;6.77;;;4.40;99.90;;;-146.47;100.00;66290.13;5033896;28;20207;-82
2021/01/30 11:36:09;;;;;;;8.20;6.43;;;4.40;99.90;;;-146.47;100.00;66290.13;5029219;28;20767;-83
2021/01/30 11:38:58;;;;;;;8.53;6.83;;;4.40;99.90;;;-146.47;100.00;66290.13;5035880;28;20258;-83
2021/01/30 11:41:44;;;;;;;8.20;6.37;;;4.40;99.90;;;-146.47;100.00;66290.13;5031461;28;20262;-82
2021/01/30 11:44:29;;;;;;;9.47;7.10;;;4.40;99.90;;;-146.47;100.00;66290.13;5028012;28;20280;-83
2021/01/30 11:47:14;;;;;;;9.07;7.10;;;4.50;99.90;;;-146.47;100.00;66290.13;5032763;28;20223;-82
2021/01/30 11:50:00;;;;;;;8.73;7.13;;;4.50;99.90;;;-146.47;100.00;66290.13;5028649;28;20219;-82
2021/01/30 11:52:45;;;;;;;10.27;7.43;;;4.50;99.90;;;-146.47;100.00;66290.13;5019818;28;20589;-82